Lexa Maersk — OYYL2 — position and weather

sailwx.info

Track history (hours):
 
Tides and Currents Weather Stations Pressure Air Temp Water Temp Dewpoint Dewpoint Depression Visibility Wind Speed Wind Dir Waves Ship Positions

Lexa Maersk

Last reported at 2017-Mar-09 01:20 UTC. Time now 2017-Mar-23 12:14 UTC.
Position S 37°30' E 176°16'.
Warning: this ship's position is 14 days out of date.

Length 265.8 m; beam 37.3 m; draft 14 m.

Type: Cargo ship. MMSI: 219979000.

Date/timePositionNaut miles runAvg speedWind from/ knotsBaromVisibWave heightAir tempDewpointWater temp
2017-Mar-09 01:20S 37°30' E 176°16'810.1
2017-Mar-09 00:34S 37°37' E 176°10'3 3.2
2017-Mar-08 23:34S 37°40' E 176°11'0 0.0
2017-Mar-08 22:34S 37°40' E 176°11'0 0.0
2017-Mar-08 21:34S 37°40' E 176°11'0 0.0
2017-Mar-08 20:34S 37°40' E 176°11'0 0.0
2017-Mar-08 19:34S 37°40' E 176°11'0 0.0
2017-Mar-08 18:34S 37°40' E 176°11'0 0.0
2017-Mar-08 17:34S 37°40' E 176°11'0 0.0
2017-Mar-08 16:34S 37°40' E 176°11'0 0.0
2017-Mar-08 15:34S 37°40' E 176°11'0 0.0
2017-Mar-08 14:34S 37°40' E 176°11'0 0.0
2017-Mar-08 13:34S 37°40' E 176°11'0 0.0
2017-Mar-08 12:34S 37°40' E 176°11'0 0.0
2017-Mar-08 11:34S 37°40' E 176°11'0 0.0
2017-Mar-08 10:34S 37°40' E 176°11'0 0.0
2017-Mar-08 09:33S 37°40' E 176°11'0 0.0
2017-Mar-08 08:34S 37°40' E 176°11'0 0.0
2017-Mar-08 07:34S 37°40' E 176°11'0 0.0
2017-Mar-08 06:34S 37°40' E 176°11'0 0.0
2017-Mar-08 05:34S 37°40' E 176°11'0 0.0
2017-Mar-08 04:34S 37°40' E 176°11'0 0.0
2017-Mar-08 03:34S 37°40' E 176°11'0 0.0
2017-Mar-08 02:33S 37°40' E 176°11'0 0.0
2017-Mar-08 01:34S 37°40' E 176°11'0 0.0
2017-Mar-08 00:34S 37°40' E 176°11'0 0.0
2017-Mar-07 23:34S 37°40' E 176°11'0 0.0
2017-Mar-07 22:33S 37°40' E 176°11'3 2.8
2017-Mar-07 21:34S 37°37' E 176°10'10 9.8
2017-Mar-07 20:33S 37°27' E 176°12'  
2017-Mar-04 08:27S 26°42' E 153°10'1314.4
2017-Mar-04 07:33S 26°55' E 153°11'1817.8
2017-Mar-04 06:33S 27°11' E 153°21'1514.5
2017-Mar-04 05:33S 27°22' E 153°10'0 0.1
2017-Mar-04 04:31S 27°22' E 153°11'0 0.0
2017-Mar-04 03:31S 27°22' E 153°11'0 0.0
2017-Mar-04 02:31S 27°22' E 153°11'0 0.0
2017-Mar-04 01:31S 27°22' E 153°11'0 0.0
2017-Mar-04 00:31S 27°22' E 153°11'0 0.0
2017-Mar-03 23:31S 27°22' E 153°11'0 0.0
2017-Mar-03 22:31S 27°22' E 153°11'0 0.0
2017-Mar-03 21:31S 27°22' E 153°11'0 0.0
2017-Mar-03 20:31S 27°22' E 153°11'0 0.0
2017-Mar-03 19:31S 27°22' E 153°11'0 0.0
2017-Mar-03 18:31S 27°22' E 153°11'0 0.0
2017-Mar-03 17:31S 27°22' E 153°11'0 0.0
2017-Mar-03 16:31S 27°22' E 153°11'0 0.0
2017-Mar-03 15:31S 27°22' E 153°11'0 0.0
2017-Mar-03 14:31S 27°22' E 153°11'0 0.0
2017-Mar-03 13:31S 27°22' E 153°11'0 0.0
2017-Mar-03 12:28S 27°22' E 153°11'0 0.0
2017-Mar-03 11:31S 27°22' E 153°11'0 0.0
2017-Mar-03 10:31S 27°22' E 153°11'0 0.0
2017-Mar-03 09:31S 27°22' E 153°11'0 0.0
2017-Mar-03 08:31S 27°22' E 153°11'0 0.0
2017-Mar-03 07:31S 27°22' E 153°11'0 0.0
2017-Mar-03 06:31S 27°22' E 153°11'0 0.0
2017-Mar-03 05:31S 27°22' E 153°11'0 0.0
2017-Mar-03 04:33S 27°22' E 153°11'6 6.0
2017-Mar-03 03:33S 27°17' E 153°14'1212.4
2017-Mar-03 02:33S 27°05' E 153°19'1515.3
2017-Mar-03 01:33S 26°52' E 153°10'1110.7
2017-Mar-03 00:34S 26°42' E 153°11'  
Track history (hours):
 
Tides and Currents Weather Stations Pressure Air Temp Water Temp Dewpoint Dewpoint Depression Visibility Wind Speed Wind Dir Waves Ship Positions

Lexa Maersk

Last reported at 2017-Mar-09 01:20 UTC. Time now 2017-Mar-23 12:14 UTC.
Position S 37°30' E 176°16'.
Warning: this ship's position is 14 days out of date.

Length 265.8 m; beam 37.3 m; draft 14 m.

Type: Cargo ship. MMSI: 219979000.

Date/timePositionNaut miles runAvg speedWind from/ knotsBaromVisibWave heightAir tempDewpointWater temp
2017-Mar-09 01:20S 37°30' E 176°16'810.1
2017-Mar-09 00:34S 37°37' E 176°10'3 3.2
2017-Mar-08 23:34S 37°40' E 176°11'0 0.0
2017-Mar-08 22:34S 37°40' E 176°11'0 0.0
2017-Mar-08 21:34S 37°40' E 176°11'0 0.0
2017-Mar-08 20:34S 37°40' E 176°11'0 0.0
2017-Mar-08 19:34S 37°40' E 176°11'0 0.0
2017-Mar-08 18:34S 37°40' E 176°11'0 0.0
2017-Mar-08 17:34S 37°40' E 176°11'0 0.0
2017-Mar-08 16:34S 37°40' E 176°11'0 0.0
2017-Mar-08 15:34S 37°40' E 176°11'0 0.0
2017-Mar-08 14:34S 37°40' E 176°11'0 0.0
2017-Mar-08 13:34S 37°40' E 176°11'0 0.0
2017-Mar-08 12:34S 37°40' E 176°11'0 0.0
2017-Mar-08 11:34S 37°40' E 176°11'0 0.0
2017-Mar-08 10:34S 37°40' E 176°11'0 0.0
2017-Mar-08 09:33S 37°40' E 176°11'0 0.0
2017-Mar-08 08:34S 37°40' E 176°11'0 0.0
2017-Mar-08 07:34S 37°40' E 176°11'0 0.0
2017-Mar-08 06:34S 37°40' E 176°11'0 0.0
2017-Mar-08 05:34S 37°40' E 176°11'0 0.0
2017-Mar-08 04:34S 37°40' E 176°11'0 0.0
2017-Mar-08 03:34S 37°40' E 176°11'0 0.0
2017-Mar-08 02:33S 37°40' E 176°11'0 0.0
2017-Mar-08 01:34S 37°40' E 176°11'0 0.0
2017-Mar-08 00:34S 37°40' E 176°11'0 0.0
2017-Mar-07 23:34S 37°40' E 176°11'0 0.0
2017-Mar-07 22:33S 37°40' E 176°11'3 2.8
2017-Mar-07 21:34S 37°37' E 176°10'10 9.8
2017-Mar-07 20:33S 37°27' E 176°12'  
2017-Mar-04 08:27S 26°42' E 153°10'1314.4
2017-Mar-04 07:33S 26°55' E 153°11'1817.8
2017-Mar-04 06:33S 27°11' E 153°21'1514.5
2017-Mar-04 05:33S 27°22' E 153°10'0 0.1
2017-Mar-04 04:31S 27°22' E 153°11'0 0.0
2017-Mar-04 03:31S 27°22' E 153°11'0 0.0
2017-Mar-04 02:31S 27°22' E 153°11'0 0.0
2017-Mar-04 01:31S 27°22' E 153°11'0 0.0
2017-Mar-04 00:31S 27°22' E 153°11'0 0.0
2017-Mar-03 23:31S 27°22' E 153°11'0 0.0
2017-Mar-03 22:31S 27°22' E 153°11'0 0.0
2017-Mar-03 21:31S 27°22' E 153°11'0 0.0
2017-Mar-03 20:31S 27°22' E 153°11'0 0.0
2017-Mar-03 19:31S 27°22' E 153°11'0 0.0
2017-Mar-03 18:31S 27°22' E 153°11'0 0.0
2017-Mar-03 17:31S 27°22' E 153°11'0 0.0
2017-Mar-03 16:31S 27°22' E 153°11'0 0.0
2017-Mar-03 15:31S 27°22' E 153°11'0 0.0
2017-Mar-03 14:31S 27°22' E 153°11'0 0.0
2017-Mar-03 13:31S 27°22' E 153°11'0 0.0
2017-Mar-03 12:28S 27°22' E 153°11'0 0.0
2017-Mar-03 11:31S 27°22' E 153°11'0 0.0
2017-Mar-03 10:31S 27°22' E 153°11'0 0.0
2017-Mar-03 09:31S 27°22' E 153°11'0 0.0
2017-Mar-03 08:31S 27°22' E 153°11'0 0.0
2017-Mar-03 07:31S 27°22' E 153°11'0 0.0
2017-Mar-03 06:31S 27°22' E 153°11'0 0.0
2017-Mar-03 05:31S 27°22' E 153°11'0 0.0
2017-Mar-03 04:33S 27°22' E 153°11'6 6.0
2017-Mar-03 03:33S 27°17' E 153°14'1212.4
2017-Mar-03 02:33S 27°05' E 153°19'1515.3
2017-Mar-03 01:33S 26°52' E 153°10'1110.7
2017-Mar-03 00:34S 26°42' E 153°11'  

Dump ship's entire track history